Time;durP1;ratioP1;P1;durP2;ratioP2;P2;SDS_P1;SDS_P2;PMS_P1;PMS_P2;Temp;Humidity;BMP_temperature;BMP_pressure;BME280_temperature;BME280_humidity;BME280_pressure;Samples;Min_cycle;Max_cycle;Signal;HPM_P1;HPM_P2
2021/12/14 00:00:39;;;;;;;37.20;15.53;;;;;;;0.33;74.47;101530.33;1872346;76;21625;-55
2021/12/14 00:03:09;;;;;;;37.67;13.88;;;;;;;0.32;74.47;101535.94;1872153;77;21115;-56
2021/12/14 00:05:38;;;;;;;35.65;14.90;;;;;;;0.32;74.49;101538.95;1871962;77;21555;-56
2021/12/14 00:08:12;;;;;;;30.45;15.03;;;;;;;0.34;74.43;101539.42;1871960;77;21617;-56
2021/12/14 00:13:42;;;;;;;31.15;14.33;;;;;;;0.33;74.41;101528.63;1904122;75;21023;-56
2021/12/14 00:15:57;;;;;;;36.17;14.93;;;;;;;0.34;74.49;101532.95;1889303;75;21302;-56
2021/12/14 00:18:26;;;;;;;30.48;13.62;;;;;;;0.37;74.51;101527.82;1902099;74;21132;-57
2021/12/14 00:21:03;;;;;;;34.78;13.60;;;;;;;0.40;74.58;101528.71;1955802;72;21090;-55
2021/12/14 00:26:22;;;;;;;30.35;13.75;;;;;;;0.50;74.49;101529.28;1964532;73;21071;-54
2021/12/14 00:28:52;;;;;;;24.95;12.75;;;;;;;0.53;74.48;101513.78;1964686;73;21478;-54
2021/12/14 00:31:21;;;;;;;31.02;13.18;;;;;;;0.55;74.50;101518.16;1964393;73;21463;-54
2021/12/14 00:33:53;;;;;;;31.68;12.82;;;;;;;0.57;74.50;101518.16;1964617;73;21052;-54
2021/12/14 00:36:22;;;;;;;30.60;13.72;;;;;;;0.59;74.51;101515.19;1964632;73;21067;-55
2021/12/14 00:38:56;;;;;;;50.45;15.15;;;;;;;0.58;74.43;101505.66;1964365;73;21110;-55
2021/12/14 00:41:25;;;;;;;32.70;14.80;;;;;;;0.61;74.38;101509.61;1964329;73;21033;-54
2021/12/14 00:43:57;;;;;;;35.43;14.60;;;;;;;0.61;74.29;101500.94;1967458;72;21059;-53
2021/12/14 00:46:27;;;;;;;30.43;13.20;;;;;;;0.58;74.47;101506.95;2033918;70;21415;-56
2021/12/14 00:48:56;;;;;;;38.48;14.75;;;;;;;0.58;74.55;101500.48;2033869;70;21106;-56
2021/12/14 00:51:28;;;;;;;36.90;14.20;;;;;;;0.60;74.51;101498.78;2034060;70;21098;-56
2021/12/14 00:53:58;;;;;;;28.12;14.38;;;;;;;0.57;74.54;101500.91;2033756;70;21017;-55
2021/12/14 00:56:27;;;;;;;40.92;15.63;;;;;;;0.52;74.70;101502.56;2033647;70;20993;-57
2021/12/14 00:58:56;;;;;;;35.88;13.28;;;;;;;0.50;74.83;101491.70;2036644;70;21093;-58
2021/12/14 01:01:29;;;;;;;31.87;14.05;;;;;;;0.50;74.80;101486.12;2051169;70;21039;-55
2021/12/14 01:04:01;;;;;;;32.93;15.58;;;;;;;0.49;74.75;101486.09;2051147;70;20980;-55
2021/12/14 01:06:32;;;;;;;29.72;12.90;;;;;;;0.43;74.84;101478.24;2051297;70;21081;-57
2021/12/14 01:09:04;;;;;;;33.10;14.25;;;;;;;0.43;74.67;101481.70;2050981;70;21462;-57
2021/12/14 01:11:42;;;;;;;26.90;14.55;;;;;;;0.43;74.59;101486.02;2051109;70;21043;-57
2021/12/14 01:14:12;;;;;;;41.00;17.27;;;;;;;0.40;74.59;101489.84;2050727;70;21135;-57
2021/12/14 01:17:06;;;;;;;28.98;16.00;;;;;;;0.38;74.57;101481.61;2039940;70;21518;-56
2021/12/14 01:19:29;;;;;;;43.60;15.95;;;;;;;0.34;74.64;101490.20;2029131;70;21581;-57
2021/12/14 01:22:16;;;;;;;32.28;15.58;;;;;;;0.31;74.76;101482.80;2031668;70;21184;-56
2021/12/14 01:27:10;;;;;;;29.80;12.23;;;;;;;0.29;74.76;101492.27;2029749;70;21491;-56
2021/12/14 01:29:42;;;;;;;33.20;14.20;;;;;;;0.24;74.67;101488.33;2033881;70;21093;-56
2021/12/14 01:32:12;;;;;;;35.78;12.82;;;;;;;0.23;74.59;101483.98;2033893;70;21027;-58
2021/12/14 01:34:41;;;;;;;30.05;11.60;;;;;;;0.22;74.52;101487.41;2033805;70;21067;-57
2021/12/14 01:37:14;;;;;;;36.53;17.07;;;;;;;0.23;74.49;101489.16;2033750;70;21016;-57
2021/12/14 01:42:29;;;;;;;37.15;17.85;;;;;;;0.27;74.45;101483.61;2033039;70;21471;-56
2021/12/14 01:45:10;;;;;;;37.80;17.87;;;;;;;0.31;74.42;101477.19;2026767;71;21112;-57
2021/12/14 01:47:43;;;;;;;42.38;16.77;;;;;;;0.35;74.41;101489.77;2026709;71;21171;-57
2021/12/14 01:50:29;;;;;;;49.50;18.57;;;;;;;0.38;74.39;101511.41;2022759;71;21089;-57
2021/12/14 01:53:00;;;;;;;56.20;20.32;;;;;;;0.41;74.33;101517.48;2023748;70;21183;-56
2021/12/14 01:55:31;;;;;;;102.38;26.48;;;;;;;0.43;74.28;101513.22;2026666;70;21510;-59
2021/12/14 01:58:03;;;;;;;122.82;30.43;;;;;;;0.45;74.23;101507.64;2026634;71;21175;-56
2021/12/14 02:00:44;;;;;;;124.20;34.88;;;;;;;0.45;74.19;101507.64;1996248;71;21023;-56
2021/12/14 02:03:14;;;;;;;119.93;29.02;;;;;;;0.46;74.22;101512.84;1989788;71;21124;-55
2021/12/14 02:05:46;;;;;;;122.67;29.60;;;;;;;0.46;74.20;101508.96;1990165;72;21015;-55
2021/12/14 02:08:20;;;;;;;105.47;24.57;;;;;;;0.49;74.18;101504.23;1989594;72;21027;-52
2021/12/14 02:10:52;;;;;;;101.02;26.07;;;;;;;0.49;74.19;101504.23;1989928;72;21489;-51
2021/12/14 02:13:29;;;;;;;95.62;24.55;;;;;;;0.45;74.24;101498.13;1989957;72;21505;-49
2021/12/14 02:16:00;;;;;;;97.15;22.85;;;;;;;0.44;74.27;101502.85;1990014;72;21102;-55
2021/12/14 02:18:32;;;;;;;85.50;24.43;;;;;;;0.43;74.30;101503.72;1990139;72;20991;-56
2021/12/14 02:21:04;;;;;;;83.20;23.02;;;;;;;0.41;74.39;101498.95;1989930;72;21179;-58
2021/12/14 02:23:34;;;;;;;89.80;25.15;;;;;;;0.41;74.44;101495.45;1990092;72;21092;-57
2021/12/14 02:26:06;;;;;;;93.03;24.57;;;;;;;0.38;74.51;101485.94;1989862;72;21019;-57
2021/12/14 02:28:35;;;;;;;92.35;23.87;;;;;;;0.37;74.49;101487.66;1989989;72;21043;-56
2021/12/14 02:31:07;;;;;;;85.77;24.82;;;;;;;0.37;74.54;101489.39;1989926;71;21023;-55
2021/12/14 02:33:39;;;;;;;103.92;25.30;;;;;;;0.33;74.54;101504.02;1991174;70;21006;-58
2021/12/14 02:36:13;;;;;;;59.80;18.75;;;;;;;0.29;74.64;101517.75;1989789;71;21527;-59
2021/12/14 02:38:44;;;;;;;58.30;17.98;;;;;;;0.25;74.63;101513.38;1989783;71;21077;-59
2021/12/14 02:41:13;;;;;;;54.90;18.02;;;;;;;0.21;74.54;101514.17;2002266;70;21088;-58
2021/12/14 02:43:53;;;;;;;62.85;19.73;;;;;;;0.19;74.58;101515.88;2040850;70;21067;-57
2021/12/14 02:46:32;;;;;;;54.18;19.02;;;;;;;0.15;74.62;101513.66;2026588;71;21144;-58
2021/12/14 02:49:04;;;;;;;46.28;20.77;;;;;;;0.11;74.69;101502.81;2027361;71;21106;-58
2021/12/14 02:51:38;;;;;;;62.88;20.62;;;;;;;0.02;74.78;101501.36;2027530;71;21566;-57
2021/12/14 02:54:10;;;;;;;53.28;20.62;;;;;;;0.03;74.79;101504.81;2052212;69;21124;-55
2021/12/14 02:56:41;;;;;;;61.53;21.82;;;;;;;0.03;74.73;101493.16;2025121;69;21492;-58
2021/12/14 02:59:13;;;;;;;59.40;22.35;;;;;;;0.04;74.67;101488.41;2028676;70;21003;-59
2021/12/14 03:01:44;;;;;;;54.42;20.90;;;;;;;0.02;74.79;101490.11;2032702;70;21081;-58
2021/12/14 03:04:14;;;;;;;49.85;19.30;;;;;;;-0.02;74.98;101493.97;2033728;70;21080;-57
2021/12/14 03:06:50;;;;;;;49.35;22.58;;;;;;;0.01;74.88;101498.31;2033892;70;21549;-56
2021/12/14 03:09:38;;;;;;;54.48;19.05;;;;;;;0.02;75.08;101504.35;2015787;69;20995;-56
2021/12/14 03:12:09;;;;;;;53.17;19.62;;;;;;;-0.01;75.38;101513.81;2012886;71;21019;-56
2021/12/14 03:14:40;;;;;;;43.33;18.90;;;;;;;-0.02;75.22;101516.38;2013846;71;21474;-55
2021/12/14 03:17:09;;;;;;;50.78;19.12;;;;;;;-0.02;75.19;101508.61;2013829;71;21043;-57
2021/12/14 03:19:38;;;;;;;31.37;13.72;;;;;;;-0.08;75.25;101504.20;2055229;69;21096;-58
2021/12/14 03:22:10;;;;;;;47.90;20.88;;;;;;;-0.08;75.23;101508.52;2065001;69;21051;-59
2021/12/14 03:24:40;;;;;;;47.17;18.10;;;;;;;-0.07;75.23;101502.07;2059178;69;21003;-58
2021/12/14 03:27:09;;;;;;;39.98;18.37;;;;;;;-0.07;75.17;101505.95;2065199;69;20980;-58
2021/12/14 03:29:38;;;;;;;51.13;19.45;;;;;;;-0.04;75.14;101503.43;2065156;69;21065;-57
2021/12/14 03:32:08;;;;;;;47.03;18.17;;;;;;;-0.04;75.16;101503.43;1997472;70;21065;-57
2021/12/14 03:34:39;;;;;;;43.83;16.40;;;;;;;-0.03;75.18;101505.59;1996756;72;21042;-56
2021/12/14 03:37:12;;;;;;;38.90;17.25;;;;;;;-0.02;75.17;101505.62;1996767;72;21542;-56
2021/12/14 03:39:44;;;;;;;46.77;17.45;;;;;;;-0.02;75.16;101501.73;1996682;71;21480;-57
2021/12/14 03:42:16;;;;;;;49.05;20.52;;;;;;;-0.01;75.14;101487.92;2034723;69;21514;-57
2021/12/14 03:44:48;;;;;;;56.65;21.12;;;;;;;-0.09;75.23;101496.00;2064881;69;21449;-58
2021/12/14 03:47:21;;;;;;;41.65;20.02;;;;;;;-0.15;75.42;101497.59;2064947;69;21071;-61
2021/12/14 03:49:52;;;;;;;42.48;16.65;;;;;;;-0.12;75.36;101497.23;2061338;69;21003;-56
2021/12/14 03:52:25;;;;;;;44.03;16.48;;;;;;;-0.13;75.31;101495.51;2065225;69;21167;-56
2021/12/14 03:54:55;;;;;;;42.53;17.40;;;;;;;-0.12;75.27;101491.19;2065173;69;21566;-56
2021/12/14 03:57:24;;;;;;;41.08;16.27;;;;;;;-0.11;75.29;101484.75;2030950;69;21019;-57
2021/12/14 03:59:54;;;;;;;45.83;15.78;;;;;;;-0.09;75.27;101492.12;2026733;70;21120;-56
2021/12/14 04:02:23;;;;;;;41.85;16.85;;;;;;;-0.05;75.23;101499.08;2052630;69;21429;-57
2021/12/14 04:05:03;;;;;;;37.10;15.45;;;;;;;-0.02;75.24;101506.91;2071786;69;21433;-57
2021/12/14 04:07:30;;;;;;;38.85;14.75;;;;;;;0.01;75.24;101502.62;2071092;69;21100;-60
2021/12/14 04:10:06;;;;;;;33.65;14.98;;;;;;;0.04;75.16;101508.73;2059277;69;21115;-57
2021/12/14 04:12:36;;;;;;;29.87;14.30;;;;;;;0.06;75.18;101514.80;2023241;69;20968;-57
2021/12/14 04:15:07;;;;;;;30.40;14.00;;;;;;;0.08;75.10;101518.28;2013674;71;21011;-56
2021/12/14 04:17:36;;;;;;;40.45;15.30;;;;;;;0.09;75.05;101513.97;2013548;71;21097;-56
2021/12/14 04:20:25;;;;;;;30.12;14.30;;;;;;;0.06;75.15;101517.39;2013588;71;21091;-56
2021/12/14 04:22:55;;;;;;;41.90;16.62;;;;;;;0.04;75.26;101507.83;1879105;75;21050;-59
2021/12/14 04:25:29;;;;;;;42.25;16.12;;;;;;;0.05;75.09;101503.12;1898794;75;21139;-58
2021/12/14 04:27:59;;;;;;;33.60;14.38;;;;;;;0.04;75.33;101510.02;1873776;76;21576;-58
2021/12/14 04:30:29;;;;;;;29.95;14.68;;;;;;;0.03;75.49;101513.44;1898933;75;21048;-59
2021/12/14 04:33:01;;;;;;;32.00;12.35;;;;;;;0.05;75.54;101514.34;1874761;76;21498;-59
2021/12/14 04:35:33;;;;;;;31.68;12.75;;;;;;;0.06;75.60;101503.58;1912995;72;21001;-56
2021/12/14 04:38:11;;;;;;;40.52;14.53;;;;;;;0.05;75.60;101512.18;1979785;72;21021;-57
2021/12/14 04:52:00;;;;;;;34.38;13.93;;;;;;;0.13;75.51;101516.65;1907261;75;21070;-56
2021/12/14 04:54:26;;;;;;;29.07;12.78;;;;;;;0.17;75.37;101518.44;1967524;72;21088;-57
2021/12/14 04:56:55;;;;;;;36.20;14.13;;;;;;;0.23;75.35;101512.48;1902616;75;21042;-56
2021/12/14 04:59:27;;;;;;;33.05;13.35;;;;;;;0.22;75.40;101512.45;1968043;73;21021;-56
2021/12/14 05:01:59;;;;;;;25.23;11.63;;;;;;;0.24;75.37;101511.64;1901393;75;21062;-58
2021/12/14 05:04:32;;;;;;;43.90;12.88;;;;;;;0.27;75.31;101514.27;1928421;72;21007;-58
2021/12/14 05:07:26;;;;;;;24.20;10.68;;;;;;;0.30;75.27;101518.20;1930370;74;21119;-57
2021/12/14 05:09:37;;;;;;;34.55;10.20;;;;;;;0.30;75.35;101518.20;1938265;72;21476;-57
2021/12/14 05:12:13;;;;;;;24.32;10.98;;;;;;;0.31;75.43;101525.55;1944183;74;21087;-58
2021/12/14 05:14:46;;;;;;;39.33;12.07;;;;;;;0.30;75.39;101532.45;1943365;74;21170;-58
2021/12/14 05:17:17;;;;;;;30.32;12.13;;;;;;;0.31;75.40;101538.50;1953991;73;21002;-58
2021/12/14 05:19:48;;;;;;;30.57;11.63;;;;;;;0.30;75.53;101544.55;1955306;72;21112;-58
2021/12/14 05:22:19;;;;;;;26.90;10.78;;;;;;;0.32;75.89;101534.64;1961882;72;21064;-57
2021/12/14 05:24:56;;;;;;;29.87;12.13;;;;;;;0.38;75.74;101514.43;1981144;72;21428;-58
2021/12/14 05:27:28;;;;;;;29.95;12.37;;;;;;;0.46;75.63;101514.14;1979486;72;21044;-59
2021/12/14 05:30:05;;;;;;;;;;;;;;;0.54;75.57;101512.95;1934308;74;21140;-58
2021/12/14 05:32:35;;;;;;;24.30;9.20;;;;;;;0.62;75.46;101516.52;1931857;74;20117;-59
2021/12/14 05:35:07;;;;;;;36.45;11.30;;;;;;;0.68;75.23;101524.40;1944665;74;21485;-59
2021/12/14 05:37:47;;;;;;;32.48;12.07;;;;;;;0.71;75.10;101521.83;1873334;76;21071;-58
2021/12/14 05:40:18;;;;;;;30.97;12.93;;;;;;;0.78;74.99;101518.05;1930763;74;21061;-58
2021/12/14 05:45:30;;;;;;;32.78;13.03;;;;;;;0.90;74.82;101524.67;1930323;74;21132;-58
2021/12/14 05:48:00;;;;;;;46.98;14.30;;;;;;;0.90;74.88;101525.97;1931867;74;21134;-58
2021/12/14 05:50:36;;;;;;;34.73;12.63;;;;;;;0.94;74.86;101523.85;1931431;74;21546;-58
2021/12/14 05:53:06;;;;;;;36.38;13.03;;;;;;;0.97;74.93;101518.72;1930619;74;21061;-60
2021/12/14 05:55:39;;;;;;;35.03;11.85;;;;;;;0.99;75.05;101519.60;1931893;74;21090;-58
2021/12/14 05:58:11;;;;;;;44.83;13.38;;;;;;;1.09;75.01;101510.23;1931955;74;21498;-57
2021/12/14 06:00:44;;;;;;;32.95;11.78;;;;;;;1.21;74.85;101505.17;1941572;73;21074;-57
2021/12/14 06:03:21;;;;;;;29.63;12.95;;;;;;;1.32;74.65;101498.81;1900249;75;21220;-57
2021/12/14 06:05:52;;;;;;;36.77;12.85;;;;;;;1.44;74.49;101496.77;1918879;74;21047;-58
2021/12/14 06:08:27;;;;;;;34.38;12.33;;;;;;;1.50;74.43;101496.86;1907346;75;21093;-58
2021/12/14 06:10:58;;;;;;;28.80;12.15;;;;;;;1.58;74.38;101492.60;1907549;74;21990;-57
2021/12/14 06:13:42;;;;;;;39.15;12.45;;;;;;;1.68;74.21;101485.80;1931348;74;21479;-57
2021/12/14 06:16:30;;;;;;;33.23;13.38;;;;;;;1.92;73.96;101479.52;1932214;74;21578;-56
2021/12/14 06:19:14;;;;;;;38.83;15.25;;;;;;;2.13;73.57;101465.81;1931785;74;21049;-58
2021/12/14 06:21:45;;;;;;;49.08;16.87;;;;;;;2.49;73.32;101477.33;1925598;73;21005;-62
2021/12/14 06:24:15;;;;;;;50.45;17.55;;;;;;;3.11;72.56;101489.32;1953389;73;21015;-59
2021/12/14 06:26:48;;;;;;;30.02;11.53;;;;;;;3.68;71.42;101497.28;1953387;73;21054;-59
2021/12/14 06:29:23;;;;;;;34.70;14.10;;;;;;;4.08;70.54;101502.53;1953538;73;21054;-60
2021/12/14 06:31:54;;;;;;;32.58;13.45;;;;;;;4.31;69.79;101504.25;1953433;73;21054;-59
2021/12/14 06:34:30;;;;;;;20.62;12.03;;;;;;;4.66;69.37;101493.76;1953412;73;21019;-60
2021/12/14 06:37:16;;;;;;;31.40;16.17;;;;;;;4.87;68.39;101495.45;1953401;73;21080;-59
2021/12/14 06:39:58;;;;;;;35.08;15.40;;;;;;;4.94;68.67;101503.70;1952079;73;21096;-58
2021/12/14 06:42:27;;;;;;;36.73;14.50;;;;;;;4.83;68.99;101504.14;1953355;73;21503;-60
2021/12/14 06:45:08;;;;;;;32.28;14.93;;;;;;;4.63;69.30;101499.86;1953296;73;21183;-62
2021/12/14 06:47:39;;;;;;;31.97;12.58;;;;;;;4.46;69.45;101499.02;1953573;73;21449;-63
2021/12/14 06:50:13;;;;;;;33.90;12.85;;;;;;;4.33;69.64;101491.64;1949634;72;21090;-59
2021/12/14 06:52:42;;;;;;;29.18;12.13;;;;;;;4.28;69.80;101489.91;1987272;72;21078;-60
2021/12/14 06:55:25;;;;;;;33.05;13.70;;;;;;;4.30;69.91;101484.25;1918918;75;21101;-60
2021/12/14 06:58:17;;;;;;;27.70;11.48;;;;;;;4.55;69.61;101493.77;1964612;73;21134;-59
2021/12/14 07:00:50;;;;;;;26.33;13.43;;;;;;;4.89;68.60;101495.01;1964725;73;21143;-60
2021/12/14 07:03:19;;;;;;;34.73;14.33;;;;;;;5.50;67.47;101491.69;1963789;73;21032;-58
2021/12/14 07:05:51;;;;;;;38.42;15.32;;;;;;;5.98;67.00;101489.63;1963552;73;21599;-57
2021/12/14 07:08:26;;;;;;;28.00;13.83;;;;;;;6.45;66.44;101487.02;1964768;73;21176;-57
2021/12/14 07:10:54;;;;;;;33.55;13.15;;;;;;;6.63;66.10;101489.03;1958725;73;21117;-57
2021/12/14 07:13:33;;;;;;;32.70;13.40;;;;;;;6.96;65.52;101485.16;1892135;76;21487;-57
2021/12/14 07:15:59;;;;;;;32.00;12.85;;;;;;;7.54;64.99;101488.33;1924370;74;21534;-58
2021/12/14 07:18:32;;;;;;;26.52;11.93;;;;;;;8.11;64.38;101492.69;1892154;76;21037;-57
2021/12/14 07:21:01;;;;;;;29.20;12.80;;;;;;;8.82;63.57;101495.36;1892328;76;21016;-57
2021/12/14 07:23:36;;;;;;;30.35;14.00;;;;;;;9.54;62.70;101491.66;1888192;76;21120;-57
2021/12/14 07:26:07;;;;;;;30.72;13.10;;;;;;;10.00;60.89;101485.77;1883661;76;21033;-57
2021/12/14 07:28:44;;;;;;;32.00;12.78;;;;;;;10.54;59.86;101480.45;1883548;76;21110;-57
2021/12/14 07:31:19;;;;;;;30.68;15.23;;;;;;;11.03;59.66;101472.50;1883664;76;21111;-57
2021/12/14 07:33:51;;;;;;;36.10;12.88;;;;;;;11.34;57.37;101466.28;1883646;76;21041;-57
2021/12/14 07:36:25;;;;;;;36.95;13.38;;;;;;;11.66;56.31;101463.13;1883200;76;21652;-57
2021/12/14 07:38:58;;;;;;;26.65;11.40;;;;;;;12.28;55.63;101461.95;1883528;75;21069;-57
2021/12/14 07:41:36;;;;;;;28.98;12.40;;;;;;;12.73;54.99;101462.58;1883606;76;21060;-56
2021/12/14 07:44:18;;;;;;;29.50;12.37;;;;;;;12.89;53.56;101459.77;1884314;76;21517;-57
2021/12/14 07:46:53;;;;;;;37.45;12.75;;;;;;;12.99;52.09;101452.35;1883628;76;21103;-57
2021/12/14 07:49:27;;;;;;;32.00;12.20;;;;;;;12.95;51.31;101454.71;1883529;76;21135;-58
2021/12/14 07:52:10;;;;;;;29.12;12.43;;;;;;;12.94;50.87;101449.01;1883645;76;21057;-57
2021/12/14 07:54:48;;;;;;;30.72;12.33;;;;;;;13.46;50.47;101443.52;1883769;76;21491;-57
2021/12/14 07:57:32;;;;;;;33.42;12.28;;;;;;;13.95;50.42;101445.96;1883594;76;21103;-57
2021/12/14 08:00:03;;;;;;;32.80;13.08;;;;;;;14.34;49.79;101446.03;1883677;76;21495;-57
2021/12/14 08:02:37;;;;;;;23.10;11.73;;;;;;;14.24;50.58;101449.55;1880172;75;21591;-57
2021/12/14 08:05:27;;;;;;;33.08;12.90;;;;;;;14.53;49.43;101443.42;1883601;76;21061;-57
2021/12/14 08:08:06;;;;;;;29.65;12.35;;;;;;;14.90;48.93;101444.92;1883636;76;21044;-57
2021/12/14 08:10:37;;;;;;;34.10;13.43;;;;;;;15.40;48.27;101444.33;1883710;76;21143;-57
2021/12/14 08:13:08;;;;;;;45.65;16.95;;;;;;;15.56;47.70;101442.66;1883787;76;21040;-57
2021/12/14 08:15:43;;;;;;;42.03;16.20;;;;;;;15.76;47.00;101443.52;1882724;76;21045;-59
2021/12/14 08:18:14;;;;;;;43.35;16.15;;;;;;;15.89;47.05;101446.42;1883624;76;21475;-58
2021/12/14 08:20:49;;;;;;;37.58;15.75;;;;;;;15.98;46.82;101435.33;1889061;73;21632;-58
2021/12/14 08:23:20;;;;;;;37.33;15.10;;;;;;;16.12;46.49;101431.52;1930860;73;21099;-60
2021/12/14 08:25:51;;;;;;;42.33;16.45;;;;;;;16.10;46.10;101413.47;1889383;74;21048;-58
2021/12/14 08:28:21;;;;;;;39.18;16.77;;;;;;;16.27;46.04;101421.00;1925038;74;21134;-59
2021/12/14 08:31:02;;;;;;;46.88;19.37;;;;;;;16.61;45.28;101418.77;1925076;74;21095;-59
2021/12/14 08:33:32;;;;;;;38.17;16.05;;;;;;;16.82;44.94;101417.21;1877621;75;21089;-58
2021/12/14 08:36:04;;;;;;;36.88;15.65;;;;;;;17.07;44.13;101413.63;1941953;74;21503;-58
2021/12/14 08:38:35;;;;;;;43.60;15.40;;;;;;;17.24;43.86;101414.48;1913599;75;21103;-58
2021/12/14 08:41:18;;;;;;;35.73;16.87;;;;;;;17.34;43.30;101405.90;1941904;74;21095;-58
2021/12/14 08:43:47;;;;;;;47.23;17.60;;;;;;;17.32;43.16;101395.81;1944451;72;21024;-58
2021/12/14 08:46:14;;;;;;;48.80;18.75;;;;;;;17.38;42.76;101403.92;1951909;72;21045;-61
2021/12/14 08:48:45;;;;;;;50.43;19.40;;;;;;;17.30;42.23;101399.04;1953500;73;21048;-59
2021/12/14 08:51:17;;;;;;;39.75;17.70;;;;;;;17.25;42.39;101392.27;1953412;73;21117;-59
2021/12/14 08:53:55;;;;;;;45.28;16.55;;;;;;;17.29;42.17;101386.66;1953462;73;21475;-60
2021/12/14 08:56:26;;;;;;;37.73;16.50;;;;;;;17.38;42.01;101387.10;1953566;73;21071;-58
2021/12/14 08:58:55;;;;;;;43.35;18.45;;;;;;;17.45;41.78;101385.80;1976064;72;21005;-59
2021/12/14 09:01:27;;;;;;;45.00;18.65;;;;;;;17.60;41.37;101379.58;1990827;72;20989;-59
2021/12/14 09:04:01;;;;;;;47.17;20.37;;;;;;;17.71;41.28;101377.62;1991080;72;21013;-59
2021/12/14 09:06:33;;;;;;;53.70;19.23;;;;;;;17.74;40.90;101378.30;1990727;72;21005;-61
2021/12/14 09:09:04;;;;;;;48.65;18.25;;;;;;;17.98;40.90;101384.45;1970266;72;21022;-61
2021/12/14 09:11:36;;;;;;;31.42;15.78;;;;;;;18.18;40.65;101390.41;1949531;72;21090;-61
2021/12/14 09:14:09;;;;;;;36.95;15.95;;;;;;;18.41;40.37;101386.34;1941995;73;21061;-63
2021/12/14 09:16:39;;;;;;;35.23;15.30;;;;;;;18.41;40.19;101381.86;1943590;73;21136;-63
2021/12/14 09:19:10;;;;;;;36.28;15.90;;;;;;;18.58;40.00;101382.63;1921146;75;21480;-63
2021/12/14 09:21:42;;;;;;;35.68;14.00;;;;;;;18.68;40.13;101384.62;1947752;72;21469;-62
2021/12/14 09:24:13;;;;;;;31.68;14.47;;;;;;;18.75;39.83;101382.89;1942669;72;21494;-64
2021/12/14 09:26:45;;;;;;;35.10;13.45;;;;;;;18.95;39.31;101388.33;1944344;74;21437;-60
2021/12/14 09:29:17;;;;;;;27.15;13.70;;;;;;;19.06;39.20;101386.67;1874811;76;21037;-60
2021/12/14 09:31:49;;;;;;;37.28;12.68;;;;;;;19.08;38.70;101383.91;1928683;73;21078;-59
2021/12/14 09:34:21;;;;;;;33.95;12.00;;;;;;;19.12;38.33;101385.42;1944541;74;21015;-59
2021/12/14 09:36:51;;;;;;;31.00;13.13;;;;;;;19.23;38.13;101374.89;1944673;74;20995;-65
2021/12/14 09:39:23;;;;;;;24.40;11.80;;;;;;;19.29;37.51;101382.52;1937366;73;21115;-58
2021/12/14 09:41:53;;;;;;;30.15;11.88;;;;;;;19.41;37.54;101374.17;1920988;74;21012;-59
2021/12/14 09:44:25;;;;;;;25.97;11.63;;;;;;;19.45;37.21;101378.83;1887670;75;20993;-58
2021/12/14 09:46:56;;;;;;;28.12;13.00;;;;;;;19.44;36.95;101379.77;1943006;74;21089;-58
2021/12/14 09:49:26;;;;;;;25.10;11.33;;;;;;;19.49;37.05;101374.98;1919784;75;21025;-58
2021/12/14 09:52:00;;;;;;;22.42;12.15;;;;;;;19.43;37.09;101370.06;1942899;74;21415;-58
2021/12/14 09:54:31;;;;;;;26.10;11.35;;;;;;;19.37;37.06;101368.66;1894156;75;21504;-60
2021/12/14 09:57:06;;;;;;;24.00;11.25;;;;;;;19.49;37.07;101368.31;1903062;75;21025;-60
2021/12/14 09:59:37;;;;;;;28.07;12.68;;;;;;;19.63;37.05;101360.73;1936264;73;21101;-59
2021/12/14 10:02:08;;;;;;;21.00;11.15;;;;;;;18.42;38.59;101354.72;1874726;76;21495;-60
2021/12/14 10:04:46;;;;;;;22.05;10.63;;;;;;;16.82;40.80;101354.71;1933187;74;21473;-61
2021/12/14 10:07:16;;;;;;;19.20;9.45;;;;;;;15.58;42.53;101360.30;1934486;74;21022;-62
2021/12/14 10:09:48;;;;;;;20.55;9.35;;;;;;;14.82;43.77;101355.98;1876509;76;21499;-62
2021/12/14 10:12:49;;;;;;;23.57;10.13;;;;;;;14.66;44.10;101345.27;1914216;74;21442;-61
2021/12/14 10:14:52;;;;;;;27.27;9.68;;;;;;;14.20;44.87;101349.97;1940926;74;21477;-62
2021/12/14 10:17:23;;;;;;;17.57;9.33;;;;;;;13.77;45.76;101351.82;1866539;76;21006;-62
2021/12/14 10:19:52;;;;;;;22.93;10.03;;;;;;;13.48;46.32;101349.07;1931821;73;21093;-64
2021/12/14 10:22:24;;;;;;;19.87;10.60;;;;;;;13.10;47.23;101353.65;1944517;74;21042;-62
2021/12/14 10:24:59;;;;;;;20.10;9.03;;;;;;;12.65;48.17;101355.85;1944671;72;21043;-64
2021/12/14 10:27:31;;;;;;;19.62;8.10;;;;;;;12.29;49.13;101359.39;1939018;74;21014;-63
2021/12/14 10:30:01;;;;;;;15.30;8.50;;;;;;;12.00;49.75;101353.36;1942484;74;21050;-64
2021/12/14 10:32:32;;;;;;;16.62;8.40;;;;;;;11.97;50.14;101350.85;1935288;73;21566;-58
2021/12/14 10:35:06;;;;;;;21.02;9.23;;;;;;;12.04;50.34;101339.59;1898433;74;21057;-60
2021/12/14 10:38:50;;;;;;;21.50;10.18;;;;;;;12.11;50.16;101339.78;1928079;74;21104;-59
2021/12/14 10:43:23;;;;;;;19.17;9.28;;;;;;;11.80;50.52;101339.50;1942582;74;21070;-59
2021/12/14 10:45:38;;;;;;;17.73;7.90;;;;;;;11.63;50.69;101341.87;1937213;73;20998;-59
2021/12/14 10:48:07;;;;;;;21.35;8.43;;;;;;;11.49;51.07;101348.48;1942546;74;21108;-57
2021/12/14 10:50:38;;;;;;;17.92;8.15;;;;;;;11.48;51.30;101350.70;1942689;74;21485;-58
2021/12/14 10:53:10;;;;;;;25.55;8.65;;;;;;;11.62;51.13;101354.20;1947768;73;21014;-57
2021/12/14 10:55:47;;;;;;;25.43;8.03;;;;;;;12.07;50.34;101354.02;1955527;72;21022;-58
2021/12/14 10:58:19;;;;;;;19.87;7.42;;;;;;;12.78;49.14;101334.22;1955312;72;21486;-58
2021/12/14 11:00:53;;;;;;;16.15;7.83;;;;;;;12.84;49.08;101330.05;1955462;73;21048;-58
2021/12/14 11:03:28;;;;;;;15.90;7.37;;;;;;;12.49;49.75;101336.22;1955215;72;21065;-59
2021/12/14 11:06:20;;;;;;;24.80;8.98;;;;;;;12.14;50.68;101338.37;1955417;73;21051;-59
2021/12/14 11:09:38;;;;;;;20.92;9.63;;;;;;;11.95;51.23;101342.98;1950299;73;21036;-58
2021/12/14 11:11:47;;;;;;;19.32;8.55;;;;;;;11.77;51.66;101348.86;1947203;73;21025;-60
2021/12/14 11:14:19;;;;;;;20.15;8.75;;;;;;;11.59;52.10;101348.56;1950202;73;21056;-58
2021/12/14 11:19:45;;;;;;;18.40;8.20;;;;;;;11.45;52.67;101348.15;1939009;74;21051;-59
2021/12/14 11:22:32;;;;;;;19.95;8.68;;;;;;;11.26;53.06;101345.26;1937729;73;21164;-59
2021/12/14 11:25:04;;;;;;;26.30;10.48;;;;;;;11.07;53.36;101338.87;1936674;74;21035;-59
2021/12/14 11:27:38;;;;;;;22.05;10.43;;;;;;;10.87;53.70;101335.53;1936623;74;21520;-59
2021/12/14 11:30:20;;;;;;;21.57;11.10;;;;;;;10.71;54.08;101335.13;1936500;74;21478;-59
2021/12/14 11:33:08;;;;;;;20.30;7.95;;;;;;;10.57;54.50;101323.70;1938330;73;21051;-60
2021/12/14 11:35:40;;;;;;;24.60;7.60;;;;;;;10.45;54.83;101329.31;1950152;73;21025;-61
2021/12/14 11:38:30;;;;;;;19.30;8.40;;;;;;;10.37;55.07;101334.34;1916194;75;21079;-61
2021/12/14 11:41:03;;;;;;;19.02;7.67;;;;;;;10.28;55.34;101321.41;1931164;73;21130;-61
2021/12/14 11:43:32;;;;;;;17.85;8.68;;;;;;;10.24;55.42;101318.47;1942042;73;21155;-60
2021/12/14 11:46:06;;;;;;;16.25;8.60;;;;;;;10.13;55.63;101325.80;1950178;73;21076;-60
2021/12/14 11:48:39;;;;;;;18.95;7.83;;;;;;;10.04;55.78;101326.91;1950332;73;21032;-59
2021/12/14 11:51:10;;;;;;;23.62;10.23;;;;;;;9.96;55.92;101321.86;1948961;73;21016;-61
2021/12/14 11:53:41;;;;;;;22.05;9.03;;;;;;;9.93;56.06;101327.20;1950254;73;21133;-59
2021/12/14 11:56:16;;;;;;;16.50;7.62;;;;;;;9.90;56.22;101325.95;1949513;73;21467;-61
2021/12/14 11:58:49;;;;;;;16.40;7.60;;;;;;;9.82;56.53;101333.20;1916039;74;21067;-61
2021/12/14 12:01:20;;;;;;;16.35;8.18;;;;;;;9.76;56.74;101336.00;1920014;73;21085;-60
2021/12/14 12:03:56;;;;;;;21.20;8.65;;;;;;;9.72;56.80;101330.38;1949894;73;21447;-60
2021/12/14 12:12:08;;;;;;;15.90;7.85;;;;;;;9.62;57.19;101346.40;1949286;73;21804;-59
2021/12/14 12:14:49;;;;;;;16.57;8.40;;;;;;;9.60;57.37;101356.55;1950295;73;21098;-58
2021/12/14 12:17:36;;;;;;;15.58;6.80;;;;;;;9.58;57.52;101355.27;1948583;73;21043;-57